Estación Meteorológica Peña el Pijo (Robertgarden) [ 11/17/17 23:49:15 CET ]

Fecha Hora Presion(HPa) Temp (°C) Humedad % Rocio (°C) Viento ( m/s) Direccion Lluvia 1Hora(mm) Lluvia 24H(mm) LLuvia Total(mm)
2017-Aug-06 01:01:54 1012.300 18.5 52 8.4         1437.96
2017-Aug-06 02:01:51 1012.300 20.2 43 7.2         1437.96
2017-Aug-06 03:01:39 1012.000 19.9 43 6.9         1437.96
2017-Aug-06 04:01:44 1011.700 19.9 46 7.9         1437.96
2017-Aug-06 05:01:37 1011.400 19.5 49 8.5         1437.96
2017-Aug-06 06:01:42 1011.300 19.9 50 9.2         1437.96
2017-Aug-06 07:01:57 1011.300 19.6 49 8.6         1437.96
2017-Aug-06 08:01:44 1011.700 18.4 53 8.6         1437.96
2017-Aug-06 09:01:24 1011.800 24.9 48 13.1         1437.96
2017-Aug-06 10:01:46 1011.800 31.1 38 15.1         1437.96
2017-Aug-06 11:01:45 1011.900 36.1 26 13.3         1437.96
2017-Aug-06 12:01:59 1012.000 37.4 22 12.0         1437.96
2017-Aug-06 13:01:57 1011.900 38.0 23 13.1         1437.96
2017-Aug-06 14:02:03 1011.600 36.4 26 13.6         1437.96
2017-Aug-06 15:01:51 1011.500 36.0 28 14.5 2.4 S     1437.96
2017-Aug-06 16:01:45 1011.400 36.1 29 15.2         1437.96
2017-Aug-06 17:01:43 1011.000 34.8 33 16.1         1437.96
2017-Aug-06 18:01:44 1010.600 37.2 14 4.6 1.5 NNW     1437.96
2017-Aug-06 19:01:44 1010.800 36.6 14 4.1         1437.96
2017-Aug-06 20:01:58 1010.900 34.4 16 4.3         1437.96
2017-Aug-06 21:01:51 1011.800 28.6 47 16.2         1437.96
2017-Aug-06 22:02:01 1012.700 25.6 60 17.3         1437.96
2017-Aug-06 23:01:52 1013.200 24.0 65 17.0         1437.96

Temperatura Máxima:38°    Temperatura Mínima:18°
Presión Máxima:1013.200 Hpa    Presión Mínima:1010.600 Hpa


Volver